Time;durP1;ratioP1;P1;durP2;ratioP2;P2;SDS_P1;SDS_P2;PMS_P1;PMS_P2;Temp;Humidity;BMP_temperature;BMP_pressure;BME280_temperature;BME280_humidity;BME280_pressure;Samples;Min_cycle;Max_cycle;Signal;HPM_P1;HPM_P2
2023/03/13 00:01:20;;;;;;;30.25;4.93;;;8.90;99.90;;;;;;5059444;28;25074;-76
2023/03/13 00:03:47;;;;;;;24.05;3.10;;;8.90;99.90;;;;;;5058336;28;25082;-76
2023/03/13 00:06:16;;;;;;;17.52;3.47;;;8.90;99.90;;;;;;5059578;28;25069;-76
2023/03/13 00:08:43;;;;;;;15.65;3.47;;;8.90;99.90;;;;;;5059608;28;25096;-76
2023/03/13 00:11:12;;;;;;;22.80;4.43;;;8.90;99.90;;;;;;5058480;28;25072;-76
2023/03/13 00:13:41;;;;;;;22.73;3.90;;;8.90;99.90;;;;;;5059468;28;25075;-76
2023/03/13 00:16:13;;;;;;;16.73;3.03;;;8.90;99.90;;;;;;5059053;28;25119;-76
2023/03/13 00:18:53;;;;;;;24.42;3.25;;;8.90;99.90;;;;;;5059113;28;25062;-76
2023/03/13 00:21:23;;;;;;;16.42;4.10;;;8.90;99.90;;;;;;5059223;28;25073;-76
2023/03/13 00:23:50;;;;;;;17.50;2.90;;;8.90;99.90;;;;;;5059018;28;25096;-76
2023/03/13 00:26:20;;;;;;;11.77;2.17;;;8.90;99.90;;;;;;5059022;28;25073;-76
2023/03/13 00:28:49;;;;;;;16.02;2.53;;;8.90;99.90;;;;;;5058933;28;25066;-76
2023/03/13 00:31:23;;;;;;;10.07;2.88;;;8.90;99.90;;;;;;5058980;28;25098;-76
2023/03/13 00:33:53;;;;;;;15.60;2.80;;;8.90;99.90;;;;;;5059105;28;25073;-76
2023/03/13 00:36:33;;;;;;;20.08;2.78;;;8.90;99.90;;;;;;5057734;28;25060;-76
2023/03/13 00:39:01;;;;;;;14.70;3.22;;;8.90;99.90;;;;;;5059033;28;25068;-76
2023/03/13 00:41:33;;;;;;;18.38;3.55;;;8.90;99.90;;;;;;5057746;28;25102;-76
2023/03/13 00:44:00;;;;;;;21.95;4.30;;;8.90;99.90;;;;;;5058587;28;25074;-76
2023/03/13 00:46:29;;;;;;;22.08;2.63;;;8.90;99.90;;;;;;5047773;28;25116;-76
2023/03/13 00:48:57;;;;;;;19.48;3.47;;;8.90;99.90;;;;;;5038837;28;25084;-76
2023/03/13 00:51:25;;;;;;;21.42;3.45;;;8.90;99.90;;;;;;5038637;28;25089;-76
2023/03/13 00:53:54;;;;;;;14.25;3.53;;;8.90;99.90;;;;;;5038744;28;25073;-76
2023/03/13 00:56:22;;;;;;;23.13;3.25;;;8.90;99.90;;;;;;5038999;28;25097;-76
2023/03/13 00:58:50;;;;;;;18.20;3.60;;;8.90;99.90;;;;;;5021047;28;25109;-76
2023/03/13 01:01:26;;;;;;;18.90;5.03;;;8.90;99.90;;;;;;5038537;28;25101;-76
2023/03/13 01:03:54;;;;;;;;;;;8.90;99.90;;;;;;5038620;28;27065;-76
2023/03/13 01:06:26;;;;;;;16.83;3.10;;;8.80;99.90;;;;;;5020721;28;24069;-76
2023/03/13 01:08:54;;;;;;;18.77;2.60;;;8.80;99.90;;;;;;5020000;28;25129;-76
2023/03/13 01:11:27;;;;;;;15.43;3.00;;;8.80;99.90;;;;;;5038050;28;25061;-76
2023/03/13 01:13:56;;;;;;;14.05;2.42;;;8.80;99.90;;;;;;5038121;28;25073;-76
2023/03/13 01:16:25;;;;;;;13.77;2.28;;;8.80;99.90;;;;;;5038047;28;25123;-76
2023/03/13 01:18:54;;;;;;;15.75;3.15;;;8.80;99.90;;;;;;5038466;28;25062;-76
2023/03/13 01:21:23;;;;;;;22.67;2.75;;;8.80;99.90;;;;;;5037977;28;25090;-76
2023/03/13 01:23:51;;;;;;;12.18;2.70;;;8.80;99.90;;;;;;5020355;28;25061;-76
2023/03/13 01:26:20;;;;;;;15.57;3.85;;;8.70;99.90;;;;;;5037958;28;25066;-76
2023/03/13 01:28:47;;;;;;;13.60;3.05;;;8.70;99.90;;;;;;5038090;28;25078;-76
2023/03/13 01:31:23;;;;;;;19.98;2.88;;;8.70;99.90;;;;;;5020086;28;25066;-76
2023/03/13 01:33:51;;;;;;;;;;;8.70;99.90;;;;;;5020545;28;25105;-76
2023/03/13 01:36:18;;;;;;;13.00;3.60;;;8.60;99.90;;;;;;5038149;28;24136;-76
2023/03/13 01:38:50;;;;;;;15.60;2.35;;;8.60;99.90;;;;;;5038201;28;24931;-76
2023/03/13 01:41:19;;;;;;;11.40;2.42;;;8.60;99.90;;;;;;5037580;28;25118;-76
2023/03/13 01:43:47;;;;;;;14.85;1.60;;;8.50;99.90;;;;;;5019944;28;25085;-76
2023/03/13 01:46:17;;;;;;;14.35;3.20;;;8.50;99.90;;;;;;5037739;28;25066;-76
2023/03/13 01:49:03;;;;;;;13.18;3.13;;;8.50;99.90;;;;;;5037714;28;25067;-76
2023/03/13 01:51:44;;;;;;;22.67;2.92;;;8.50;99.90;;;;;;5037607;28;25079;-76
2023/03/13 01:54:19;;;;;;;15.65;2.33;;;8.50;99.90;;;;;;5037328;28;25101;-76
2023/03/13 01:57:04;;;;;;;10.38;2.03;;;8.50;99.90;;;;;;5019971;28;25069;-76
2023/03/13 01:59:46;;;;;;;18.90;3.13;;;8.60;99.90;;;;;;5037272;28;25064;-76
2023/03/13 02:02:15;;;;;;;17.27;2.80;;;8.60;99.90;;;;;;5037198;28;25078;-76
2023/03/13 02:04:53;;;;;;;11.90;2.22;;;8.60;99.90;;;;;;5037123;28;25062;-76
2023/03/13 02:07:29;;;;;;;13.00;2.70;;;8.60;99.90;;;;;;5019840;28;25098;-76
2023/03/13 02:09:57;;;;;;;8.50;2.17;;;8.70;99.90;;;;;;5019547;28;25094;-76
2023/03/13 02:12:37;;;;;;;19.30;3.05;;;8.70;99.90;;;;;;5036897;28;25058;-76
2023/03/13 02:15:16;;;;;;;15.13;2.60;;;8.80;99.90;;;;;;5037017;28;25077;-76
2023/03/13 02:17:45;;;;;;;14.32;3.38;;;8.80;99.90;;;;;;5036947;28;25126;-76
2023/03/13 02:20:14;;;;;;;19.58;3.50;;;8.80;99.90;;;;;;5037121;28;25050;-76
2023/03/13 02:23:07;;;;;;;13.43;2.55;;;8.80;99.90;;;;;;5018746;28;25116;-76
2023/03/13 02:25:48;;;;;;;16.88;2.92;;;8.70;99.90;;;;;;5037072;28;25090;-76
2023/03/13 02:28:35;;;;;;;14.85;2.92;;;8.70;99.90;;;;;;5036744;28;25073;-76
2023/03/13 02:31:02;;;;;;;9.63;1.95;;;8.60;99.90;;;;;;5036908;28;25081;-76
2023/03/13 02:33:34;;;;;;;11.63;2.45;;;8.50;99.90;;;;;;5036608;28;25061;-76
2023/03/13 02:36:04;;;;;;;17.08;2.63;;;8.40;99.90;;;;;;5037384;28;25079;-76
2023/03/13 02:38:34;;;;;;;14.30;3.30;;;8.30;99.90;;;;;;5036858;28;25062;-76
2023/03/13 02:41:04;;;;;;;14.23;3.28;;;8.30;99.90;;;;;;5019063;28;25068;-76
2023/03/13 02:43:33;;;;;;;16.33;3.63;;;8.20;99.90;;;;;;5036543;28;25093;-76
2023/03/13 02:46:20;;;;;;;18.73;3.35;;;8.20;99.90;;;;;;5036549;28;25066;-76
2023/03/13 02:48:56;;;;;;;13.75;2.00;;;8.10;99.90;;;;;;5036440;28;25056;-76
2023/03/13 02:51:27;;;;;;;24.63;2.65;;;8.00;99.90;;;;;;5036406;28;25131;-76
2023/03/13 02:53:59;;;;;;;14.45;2.30;;;8.00;99.90;;;;;;5036389;28;25074;-76
2023/03/13 02:56:32;;;;;;;7.78;1.92;;;7.90;99.90;;;;;;5036782;28;25117;-76
2023/03/13 02:58:59;;;;;;;14.43;3.47;;;7.90;99.90;;;;;;5036332;28;25074;-76
2023/03/13 03:01:27;;;;;;;20.35;2.42;;;7.90;99.90;;;;;;5018752;28;25070;-76
2023/03/13 03:03:54;;;;;;;15.95;2.38;;;7.80;99.90;;;;;;5018768;28;25060;-76
2023/03/13 03:06:21;;;;;;;17.58;2.38;;;7.80;99.90;;;;;;5036991;28;25112;-76
2023/03/13 03:08:49;;;;;;;15.38;2.80;;;7.80;99.90;;;;;;5036758;28;25110;-76
2023/03/13 03:11:16;;;;;;;14.60;3.55;;;7.80;99.90;;;;;;5036693;28;25085;-76
2023/03/13 03:13:44;;;;;;;10.05;2.67;;;7.80;99.90;;;;;;5018676;28;25055;-76
2023/03/13 03:16:17;;;;;;;12.18;2.42;;;7.80;99.90;;;;;;5036590;28;25117;-76
2023/03/13 03:18:45;;;;;;;15.90;3.55;;;7.80;99.90;;;;;;5036173;28;25115;-76
2023/03/13 03:21:13;;;;;;;10.77;2.10;;;7.80;99.90;;;;;;5036456;28;25059;-76
2023/03/13 03:23:40;;;;;;;15.55;2.95;;;7.90;99.90;;;;;;5036103;28;25135;-76
2023/03/13 03:26:08;;;;;;;16.80;2.20;;;7.90;99.90;;;;;;5018635;28;25098;-76
2023/03/13 03:28:36;;;;;;;10.15;2.22;;;7.90;99.90;;;;;;5036055;28;25068;-76
2023/03/13 03:31:08;;;;;;;17.83;2.45;;;7.90;99.90;;;;;;5036526;28;25075;-76
2023/03/13 03:33:35;;;;;;;18.35;2.58;;;8.00;99.90;;;;;;5038980;28;25133;-76
2023/03/13 03:36:10;;;;;;;15.48;2.67;;;8.00;99.90;;;;;;5040454;28;25132;-76
2023/03/13 03:38:38;;;;;;;9.13;1.65;;;8.10;99.90;;;;;;5040140;28;25047;-76
2023/03/13 03:41:07;;;;;;;17.38;2.33;;;8.10;99.90;;;;;;5040399;28;25099;-76
2023/03/13 03:43:34;;;;;;;23.45;3.03;;;8.10;99.90;;;;;;5039825;28;25063;-76
2023/03/13 03:46:01;;;;;;;10.57;1.80;;;8.10;99.90;;;;;;5039676;28;25075;-76
2023/03/13 03:48:28;;;;;;;11.93;2.13;;;8.10;99.90;;;;;;5040246;28;25110;-76
2023/03/13 03:50:55;;;;;;;13.05;3.63;;;8.00;99.90;;;;;;5022641;28;25058;-76
2023/03/13 03:53:23;;;;;;;14.80;2.95;;;8.00;99.90;;;;;;5039914;28;25132;-76
2023/03/13 03:55:51;;;;;;;15.70;2.92;;;7.90;99.90;;;;;;5039894;28;25159;-76
2023/03/13 03:58:18;;;;;;;11.50;2.67;;;7.90;99.90;;;;;;5021938;28;25114;-76
2023/03/13 04:00:47;;;;;;;14.60;2.63;;;7.80;99.90;;;;;;5040275;28;25108;-76
2023/03/13 04:03:15;;;;;;;8.55;2.03;;;7.80;99.90;;;;;;5021829;28;25070;-76
2023/03/13 04:05:43;;;;;;;14.20;2.85;;;7.80;99.90;;;;;;5039359;28;25062;-76
2023/03/13 04:08:11;;;;;;;17.88;3.95;;;7.70;99.90;;;;;;5039848;28;25066;-76
2023/03/13 04:10:38;;;;;;;4.10;0.88;;;7.70;99.90;;;;;;5039615;28;25043;-76
2023/03/13 04:13:06;;;;;;;19.38;2.88;;;7.70;99.90;;;;;;5039534;28;25064;-76
2023/03/13 04:15:34;;;;;;;21.05;3.42;;;7.70;99.90;;;;;;5039302;28;25115;-76
2023/03/13 04:18:02;;;;;;;23.02;2.90;;;7.70;99.90;;;;;;5039444;28;25086;-76
2023/03/13 04:20:30;;;;;;;11.52;3.22;;;7.70;99.90;;;;;;5039287;28;25047;-76
2023/03/13 04:22:57;;;;;;;16.88;2.70;;;7.60;99.90;;;;;;5039366;28;25137;-76
2023/03/13 04:25:25;;;;;;;16.33;2.60;;;7.60;99.90;;;;;;5039617;28;25121;-76
2023/03/13 04:27:52;;;;;;;13.50;1.83;;;7.70;99.90;;;;;;5039007;28;25132;-76
2023/03/13 04:30:20;;;;;;;18.48;3.33;;;7.60;99.90;;;;;;5039417;28;25096;-76
2023/03/13 04:32:49;;;;;;;14.57;3.28;;;7.60;99.90;;;;;;5038842;28;25088;-76
2023/03/13 04:35:18;;;;;;;17.25;3.95;;;7.70;99.90;;;;;;5021928;28;25081;-76
2023/03/13 04:37:46;;;;;;;19.15;3.53;;;7.60;99.90;;;;;;5038810;28;25067;-76
2023/03/13 04:40:13;;;;;;;16.23;2.22;;;7.60;99.90;;;;;;5039231;28;25102;-76
2023/03/13 04:42:41;;;;;;;14.50;3.97;;;7.60;99.90;;;;;;5021153;28;25071;-76
2023/03/13 04:45:11;;;;;;;12.23;2.58;;;7.70;99.90;;;;;;5037652;28;25088;-76
2023/03/13 04:47:39;;;;;;;13.27;2.78;;;7.60;99.90;;;;;;5058568;28;25096;-76
2023/03/13 04:50:12;;;;;;;11.30;2.28;;;7.60;99.90;;;;;;5058788;28;25121;-76
2023/03/13 04:52:39;;;;;;;14.68;2.80;;;7.60;99.90;;;;;;5058402;28;25070;-76
2023/03/13 04:55:07;;;;;;;8.20;3.30;;;7.60;99.90;;;;;;5040678;28;25119;-76
2023/03/13 04:57:35;;;;;;;13.40;1.67;;;7.60;99.90;;;;;;5058401;28;25062;-76
2023/03/13 05:00:06;;;;;;;12.07;2.13;;;7.60;99.90;;;;;;5058606;28;25098;-76
2023/03/13 05:02:34;;;;;;;14.70;2.25;;;7.60;99.90;;;;;;5058223;28;25066;-76
2023/03/13 05:05:01;;;;;;;13.48;2.35;;;7.60;99.90;;;;;;5058170;28;25055;-76
2023/03/13 05:07:29;;;;;;;11.65;2.30;;;7.60;99.90;;;;;;5058183;28;25056;-76
2023/03/13 05:09:56;;;;;;;21.02;3.17;;;7.60;99.90;;;;;;5040439;28;25111;-77
2023/03/13 05:12:23;;;;;;;19.50;3.67;;;7.70;99.90;;;;;;5041148;28;25126;-77
2023/03/13 05:14:51;;;;;;;16.52;5.03;;;7.70;99.90;;;;;;5058046;28;25125;-76
2023/03/13 05:17:18;;;;;;;8.15;2.42;;;7.70;99.90;;;;;;5058181;28;25133;-77
2023/03/13 05:19:46;;;;;;;19.60;3.15;;;7.70;99.90;;;;;;5058015;28;25054;-82
2023/03/13 05:22:14;;;;;;;12.35;4.30;;;7.70;99.90;;;;;;5058307;28;25156;-78
2023/03/13 05:24:41;;;;;;;18.20;2.75;;;7.70;99.90;;;;;;5058423;28;25146;-78
2023/03/13 05:27:09;;;;;;;20.17;3.50;;;7.70;99.90;;;;;;5058202;28;25061;-78
2023/03/13 05:29:37;;;;;;;12.63;2.72;;;7.70;99.90;;;;;;5058081;28;25146;-78
2023/03/13 05:32:04;;;;;;;13.00;2.95;;;7.70;99.90;;;;;;5057780;28;25146;-78
2023/03/13 05:34:32;;;;;;;7.43;2.28;;;7.70;99.90;;;;;;5057883;28;25066;-78
2023/03/13 05:36:59;;;;;;;14.65;3.05;;;7.80;99.90;;;;;;5057782;28;25159;-78
2023/03/13 05:39:26;;;;;;;6.03;1.88;;;7.70;99.90;;;;;;5057582;28;25104;-78
2023/03/13 05:41:55;;;;;;;9.85;2.17;;;7.80;99.90;;;;;;5039860;28;25067;-78
2023/03/13 05:44:24;;;;;;;16.15;2.50;;;7.80;99.90;;;;;;5057750;28;25070;-78
2023/03/13 05:46:51;;;;;;;7.82;2.80;;;7.80;99.90;;;;;;5043674;28;25087;-78
2023/03/13 05:49:18;;;;;;;17.60;3.33;;;7.80;99.90;;;;;;5037433;28;25088;-78
2023/03/13 05:51:45;;;;;;;12.13;1.90;;;7.90;99.90;;;;;;5037354;28;25123;-78
2023/03/13 05:54:13;;;;;;;10.95;2.70;;;7.90;99.90;;;;;;5037630;28;25125;-78
2023/03/13 05:56:40;;;;;;;4.60;1.30;;;7.90;99.90;;;;;;5037318;28;25122;-78
2023/03/13 05:59:08;;;;;;;5.90;1.20;;;7.90;99.90;;;;;;5037614;28;25059;-78
2023/03/13 06:01:36;;;;;;;10.98;1.70;;;8.00;99.90;;;;;;5037275;28;25119;-78
2023/03/13 06:04:03;;;;;;;9.02;1.70;;;8.00;99.90;;;;;;5037696;28;25075;-78
2023/03/13 06:06:30;;;;;;;15.02;2.20;;;8.10;99.90;;;;;;5037315;28;25127;-78
2023/03/13 06:08:57;;;;;;;9.23;2.30;;;8.10;99.90;;;;;;5019563;28;25094;-78
2023/03/13 06:11:24;;;;;;;6.15;1.70;;;8.20;99.90;;;;;;5037011;28;25154;-78
2023/03/13 06:13:53;;;;;;;9.13;1.30;;;8.20;99.90;;;;;;5037017;28;25111;-78
2023/03/13 06:16:20;;;;;;;8.55;1.80;;;8.30;99.90;;;;;;5037378;28;25060;-78
2023/03/13 06:18:48;;;;;;;6.75;1.52;;;8.30;99.90;;;;;;5036948;28;25046;-78
2023/03/13 06:21:15;;;;;;;6.68;1.40;;;8.40;99.90;;;;;;5037163;28;25063;-78
2023/03/13 06:23:43;;;;;;;1.88;1.00;;;8.40;99.90;;;;;;5037117;28;25077;-78
2023/03/13 06:26:10;;;;;;;6.28;0.95;;;8.50;99.90;;;;;;5019408;28;25061;-78
2023/03/13 06:28:37;;;;;;;8.95;1.17;;;8.60;99.90;;;;;;5036737;28;25099;-78
2023/03/13 06:31:06;;;;;;;4.25;0.95;;;8.60;99.90;;;;;;5019127;28;25064;-77
2023/03/13 06:33:33;;;;;;;4.00;1.00;;;8.70;99.90;;;;;;5019279;28;25058;-79
2023/03/13 06:36:02;;;;;;;3.78;1.60;;;8.70;99.90;;;;;;5036858;28;25098;-77
2023/03/13 06:38:29;;;;;;;4.55;1.00;;;8.70;99.90;;;;;;5036884;28;25086;-77
2023/03/13 06:40:56;;;;;;;6.03;1.30;;;8.70;99.90;;;;;;5036603;28;25155;-78
2023/03/13 06:43:24;;;;;;;3.97;1.10;;;8.70;99.90;;;;;;5018949;28;25063;-79
2023/03/13 06:45:53;;;;;;;4.55;0.88;;;8.80;99.90;;;;;;5036769;28;25077;-78
2023/03/13 06:48:21;;;;;;;2.17;1.10;;;8.80;99.90;;;;;;5036708;28;25072;-78
2023/03/13 06:50:49;;;;;;;2.22;1.08;;;8.80;99.90;;;;;;5036461;28;25104;-78
2023/03/13 06:53:19;;;;;;;1.75;0.90;;;8.90;99.90;;;;;;5036676;28;25077;-80
2023/03/13 06:55:47;;;;;;;4.43;1.63;;;8.90;99.90;;;;;;5037068;28;25046;-81
2023/03/13 06:58:16;;;;;;;5.57;0.93;;;9.00;99.90;;;;;;5037658;28;25101;-79
2023/03/13 07:00:44;;;;;;;5.10;1.20;;;9.00;99.90;;;;;;5036924;28;25056;-79
2023/03/13 07:03:13;;;;;;;4.18;1.45;;;9.10;99.90;;;;;;5036473;28;25064;-79
2023/03/13 07:05:40;;;;;;;4.13;0.93;;;9.10;99.90;;;;;;5036710;28;25071;-79
2023/03/13 07:08:07;;;;;;;6.22;1.38;;;9.20;99.90;;;;;;5035683;28;25064;-78
2023/03/13 07:10:34;;;;;;;4.68;1.70;;;9.30;99.90;;;;;;5018740;28;25102;-78
2023/03/13 07:13:01;;;;;;;2.70;1.00;;;9.30;99.90;;;;;;5036120;28;25050;-77
2023/03/13 07:15:28;;;;;;;3.13;0.90;;;9.40;99.90;;;;;;5036714;28;25071;-78
2023/03/13 07:17:59;;;;;;;1.95;0.80;;;9.40;99.90;;;;;;5018599;28;25073;-79
2023/03/13 07:20:25;;;;;;;4.80;1.02;;;9.50;99.90;;;;;;5036409;28;25083;-78
2023/03/13 07:22:53;;;;;;;2.88;1.08;;;9.60;99.90;;;;;;5018568;28;25111;-80
2023/03/13 07:25:21;;;;;;;2.30;0.80;;;9.70;99.90;;;;;;5036356;28;25070;-77
2023/03/13 07:27:51;;;;;;;1.80;1.10;;;9.80;99.90;;;;;;5036105;28;25086;-77
2023/03/13 07:30:19;;;;;;;2.50;0.90;;;9.90;99.90;;;;;;5036246;28;25093;-77
2023/03/13 07:32:46;;;;;;;3.15;0.75;;;10.00;99.90;;;;;;5036514;28;25066;-77
2023/03/13 07:35:14;;;;;;;1.65;0.85;;;10.00;99.90;;;;;;5036049;28;25097;-77
2023/03/13 07:37:41;;;;;;;6.00;1.05;;;10.20;99.90;;;;;;5035987;28;25053;-77
2023/03/13 07:40:10;;;;;;;4.15;0.80;;;10.20;99.90;;;;;;5036267;28;25064;-77
2023/03/13 07:42:41;;;;;;;3.00;0.90;;;10.20;99.90;;;;;;5035995;28;25012;-77
2023/03/13 07:45:10;;;;;;;2.65;1.27;;;10.30;99.90;;;;;;5035844;28;25054;-77
2023/03/13 07:47:37;;;;;;;3.88;1.15;;;10.30;99.90;;;;;;5035754;28;25113;-82
2023/03/13 07:50:05;;;;;;;3.33;1.25;;;10.40;99.90;;;;;;5018392;28;25069;-76
2023/03/13 07:52:32;;;;;;;3.25;1.40;;;10.50;99.90;;;;;;5036120;28;25099;-75
2023/03/13 07:55:00;;;;;;;4.25;1.50;;;10.60;99.90;;;;;;5036091;28;25062;-77
2023/03/13 07:57:27;;;;;;;4.25;1.20;;;10.60;99.90;;;;;;5018285;28;25120;-78
2023/03/13 07:59:54;;;;;;;1.98;1.08;;;10.70;99.90;;;;;;5035795;28;25070;-77
2023/03/13 08:02:22;;;;;;;2.33;1.25;;;10.70;99.90;;;;;;5035971;28;25071;-79
2023/03/13 08:04:52;;;;;;;2.58;1.48;;;10.70;99.90;;;;;;5035736;28;25074;-77
2023/03/13 08:07:21;;;;;;;2.65;1.20;;;10.80;99.90;;;;;;5035760;28;25053;-78
2023/03/13 08:09:48;;;;;;;1.67;0.95;;;10.80;99.90;;;;;;5035984;28;25107;-78
2023/03/13 08:12:16;;;;;;;2.92;0.73;;;10.80;99.90;;;;;;5035886;28;25046;-78
2023/03/13 08:14:43;;;;;;;4.60;1.15;;;10.90;99.90;;;;;;5035933;28;25111;-78
2023/03/13 08:17:10;;;;;;;4.40;2.03;;;10.90;99.90;;;;;;5018255;28;25057;-78
2023/03/13 08:19:38;;;;;;;4.88;1.73;;;11.00;99.90;;;;;;5019189;28;25047;-79
2023/03/13 08:22:05;;;;;;;3.17;1.50;;;11.00;99.90;;;;;;5039209;28;25075;-79
2023/03/13 08:24:33;;;;;;;4.28;1.20;;;11.10;99.90;;;;;;5021503;28;25059;-79
2023/03/13 08:27:00;;;;;;;1.40;0.70;;;11.20;99.90;;;;;;5039423;28;25083;-78
2023/03/13 08:29:27;;;;;;;3.80;1.23;;;11.30;99.90;;;;;;5038913;28;25067;-78
2023/03/13 08:31:55;;;;;;;4.93;1.35;;;11.40;99.90;;;;;;5038868;28;25058;-78
2023/03/13 08:34:22;;;;;;;4.38;1.08;;;11.40;99.90;;;;;;5021277;28;25060;-79
2023/03/13 08:36:49;;;;;;;1.50;0.80;;;11.60;99.90;;;;;;5038814;28;25070;-78
2023/03/13 08:39:18;;;;;;;1.95;0.82;;;11.60;99.90;;;;;;5021190;28;25086;-78
2023/03/13 08:41:46;;;;;;;1.10;0.70;;;11.70;99.90;;;;;;5021183;28;25132;-78
2023/03/13 08:44:16;;;;;;;1.75;0.98;;;11.90;99.90;;;;;;5038689;28;25064;-78
2023/03/13 08:46:43;;;;;;;2.10;0.95;;;12.00;99.90;;;;;;5038724;28;25155;-78
2023/03/13 08:49:11;;;;;;;2.65;1.27;;;12.10;99.90;;;;;;5038602;28;25114;-79
2023/03/13 08:51:39;;;;;;;1.50;0.70;;;12.20;99.90;;;;;;5038930;28;25073;-84
2023/03/13 08:54:06;;;;;;;1.77;0.95;;;12.30;99.90;;;;;;5038540;28;25054;-78
2023/03/13 08:56:34;;;;;;;2.55;0.80;;;12.40;99.90;;;;;;5038521;28;25073;-78
2023/03/13 08:59:02;;;;;;;1.55;0.80;;;12.50;99.90;;;;;;5038344;28;25125;-78
2023/03/13 09:01:32;;;;;;;1.48;0.77;;;12.60;99.90;;;;;;5038759;28;25103;-78
2023/03/13 09:04:00;;;;;;;2.47;0.77;;;12.70;99.90;;;;;;5038295;28;25117;-78
2023/03/13 09:06:27;;;;;;;3.47;0.93;;;12.70;99.90;;;;;;5038565;28;25068;-78
2023/03/13 09:08:57;;;;;;;1.90;0.60;;;12.70;99.90;;;;;;5038265;28;25064;-78
2023/03/13 09:11:24;;;;;;;2.42;0.70;;;12.80;99.90;;;;;;5038597;28;25073;-78
2023/03/13 09:13:53;;;;;;;2.55;0.68;;;12.80;99.90;;;;;;5020561;28;25095;-78
2023/03/13 09:16:23;;;;;;;3.20;0.90;;;12.90;99.90;;;;;;5038149;28;25096;-78
2023/03/13 09:18:51;;;;;;;1.70;0.65;;;12.90;99.90;;;;;;5020480;28;25065;-79
2023/03/13 09:21:20;;;;;;;2.40;1.00;;;13.00;99.90;;;;;;5038456;28;25152;-78
2023/03/13 09:23:48;;;;;;;2.28;0.60;;;13.20;99.90;;;;;;5037878;28;25136;-78
2023/03/13 09:26:17;;;;;;;1.85;0.70;;;13.30;99.90;;;;;;5038463;28;25095;-78
2023/03/13 09:28:45;;;;;;;3.75;1.25;;;13.30;99.90;;;;;;5037859;28;25056;-75
2023/03/13 09:31:22;;;;;;;1.60;0.70;;;13.30;99.90;;;;;;5019902;28;25059;-79
2023/03/13 09:33:50;;;;;;;3.10;1.10;;;13.30;99.90;;;;;;5020247;28;25049;-78
2023/03/13 09:36:18;;;;;;;1.45;0.60;;;13.30;99.90;;;;;;5020231;28;25062;-78
2023/03/13 09:38:45;;;;;;;2.17;0.65;;;13.30;99.90;;;;;;5020141;28;25091;-78
2023/03/13 09:41:34;;;;;;;8.73;1.20;;;13.20;99.90;;;;;;5020266;28;25115;-80
2023/03/13 09:44:22;;;;;;;2.53;0.70;;;13.30;99.90;;;;;;5037888;28;25074;-79
2023/03/13 09:46:58;;;;;;;6.63;1.25;;;13.30;99.90;;;;;;5039517;28;25061;-78
2023/03/13 09:49:42;;;;;;;4.07;1.02;;;13.30;99.90;;;;;;5037794;28;25121;-79
2023/03/13 09:52:15;;;;;;;1.75;0.90;;;13.40;99.90;;;;;;5037332;28;25059;-79
2023/03/13 09:54:59;;;;;;;2.55;1.08;;;13.40;99.90;;;;;;5037909;28;25059;-78
2023/03/13 09:57:41;;;;;;;2.33;1.10;;;13.40;99.90;;;;;;5019750;28;25124;-78
2023/03/13 10:00:18;;;;;;;6.22;1.90;;;13.40;99.90;;;;;;5037507;28;25062;-79
2023/03/13 10:03:03;;;;;;;4.30;1.50;;;13.40;99.90;;;;;;5037536;28;25116;-78
2023/03/13 10:05:32;;;;;;;3.05;1.25;;;13.30;99.90;;;;;;5019756;28;25073;-78
2023/03/13 10:08:24;;;;;;;2.33;1.10;;;13.30;99.90;;;;;;5019579;28;25098;-79
2023/03/13 10:10:55;;;;;;;1.95;0.82;;;13.00;99.90;;;;;;5037073;28;25100;-78
2023/03/13 10:13:31;;;;;;;5.38;1.55;;;12.80;99.90;;;;;;5019453;28;25132;-81
2023/03/13 10:16:09;;;;;;;5.13;1.20;;;12.70;99.90;;;;;;5019643;28;25071;-80
2023/03/13 10:18:37;;;;;;;4.03;0.90;;;12.60;99.90;;;;;;5036951;28;25096;-81
2023/03/13 10:21:20;;;;;;;5.57;1.25;;;12.60;99.90;;;;;;5036924;28;25140;-80
2023/03/13 10:23:51;;;;;;;3.45;1.90;;;12.60;99.90;;;;;;5019376;28;25059;-79
2023/03/13 10:26:31;;;;;;;3.22;1.23;;;12.60;99.90;;;;;;5037281;28;25071;-79
2023/03/13 10:29:21;;;;;;;4.75;1.10;;;12.70;99.90;;;;;;5036736;28;25126;-80
2023/03/13 10:32:04;;;;;;;3.90;1.30;;;12.90;99.90;;;;;;5036912;28;25054;-76
2023/03/13 10:34:59;;;;;;;1.58;0.95;;;13.20;99.90;;;;;;5036655;28;25047;-78
2023/03/13 10:37:40;;;;;;;3.30;1.10;;;13.50;99.90;;;;;;5036786;28;25065;-78
2023/03/13 10:40:23;;;;;;;4.15;0.98;;;13.70;99.90;;;;;;5036638;28;25078;-79
2023/03/13 10:42:52;;;;;;;4.38;1.10;;;13.90;99.90;;;;;;5035785;28;25076;-77
2023/03/13 10:45:22;;;;;;;2.25;0.90;;;14.10;99.90;;;;;;5036823;28;25125;-78
2023/03/13 10:48:00;;;;;;;2.85;1.20;;;14.30;99.90;;;;;;5036342;28;25164;-79
2023/03/13 10:50:34;;;;;;;5.47;1.10;;;14.40;99.90;;;;;;5037025;28;25110;-80
2023/03/13 10:53:20;;;;;;;2.15;0.98;;;14.60;99.90;;;;;;5036345;28;25058;-79
2023/03/13 10:55:49;;;;;;;8.15;1.30;;;14.70;99.90;;;;;;5037154;28;25101;-78
2023/03/13 10:58:36;;;;;;;4.15;1.23;;;14.70;99.90;;;;;;5036372;28;25150;-77
2023/03/13 11:01:33;;;;;;;2.70;1.08;;;14.70;99.90;;;;;;5036563;28;25073;-78
2023/03/13 11:04:27;;;;;;;2.17;0.80;;;14.70;99.90;;;;;;5038895;28;25082;-79
2023/03/13 11:07:03;;;;;;;2.88;0.95;;;14.70;99.90;;;;;;5039138;28;25110;-79
2023/03/13 11:09:32;;;;;;;1.90;1.02;;;14.90;99.90;;;;;;5037368;28;25062;-78
2023/03/13 11:12:20;;;;;;;2.65;0.90;;;15.00;99.90;;;;;;5018651;28;25053;-78
2023/03/13 11:14:47;;;;;;;3.15;0.88;;;15.00;99.90;;;;;;5018642;28;25126;-78
2023/03/13 11:17:31;;;;;;;6.25;1.38;;;15.00;99.90;;;;;;5036351;28;25066;-77
2023/03/13 11:20:22;;;;;;;3.95;1.48;;;15.00;99.90;;;;;;5036631;28;25081;-79
2023/03/13 11:23:24;;;;;;;3.85;1.10;;;14.90;99.90;;;;;;5038292;28;25133;-77
2023/03/13 11:26:14;;;;;;;4.57;1.13;;;14.80;99.90;;;;;;5018569;28;25056;-77
2023/03/13 11:28:59;;;;;;;7.65;1.45;;;14.80;99.90;;;;;;5036251;28;25070;-84
2023/03/13 11:31:47;;;;;;;2.70;1.42;;;14.80;99.90;;;;;;5018624;28;25062;-79
2023/03/13 11:34:31;;;;;;;4.80;1.58;;;14.90;99.90;;;;;;5036277;28;25060;-78
2023/03/13 11:36:58;;;;;;;2.85;1.42;;;14.90;99.90;;;;;;5036068;28;25065;-79
2023/03/13 11:39:50;;;;;;;3.05;1.38;;;14.90;99.90;;;;;;5018684;28;25076;-78
2023/03/13 11:42:36;;;;;;;2.75;1.05;;;14.90;99.90;;;;;;5036685;28;25125;-79
2023/03/13 11:45:22;;;;;;;6.05;1.13;;;15.00;99.90;;;;;;5036227;28;25146;-78
2023/03/13 11:48:00;;;;;;;1.83;1.00;;;15.00;99.90;;;;;;5052851;28;25071;-79
2023/03/13 11:50:40;;;;;;;3.17;1.00;;;15.00;99.90;;;;;;5056278;28;25061;-79
2023/03/13 11:53:28;;;;;;;3.53;1.00;;;14.90;99.90;;;;;;5056574;28;25135;-78
2023/03/13 11:56:16;;;;;;;1.98;0.90;;;14.90;99.90;;;;;;5059940;28;25116;-79
2023/03/13 11:58:46;;;;;;;3.28;0.90;;;14.80;99.90;;;;;;5059586;28;25064;-78
2023/03/13 12:01:28;;;;;;;1.98;0.90;;;14.90;99.90;;;;;;5058637;28;25062;-78
2023/03/13 12:04:16;;;;;;;3.75;0.85;;;14.90;99.90;;;;;;5059460;28;25082;-78
2023/03/13 12:07:07;;;;;;;5.97;1.17;;;15.10;99.90;;;;;;5059681;28;25065;-79
2023/03/13 12:09:46;;;;;;;2.72;0.90;;;15.30;99.90;;;;;;5059473;28;25055;-78
2023/03/13 12:12:29;;;;;;;2.10;1.00;;;15.40;99.90;;;;;;5059685;28;25094;-78
2023/03/13 12:15:10;;;;;;;1.35;0.65;;;15.40;99.90;;;;;;5059812;28;25084;-79
2023/03/13 12:17:52;;;;;;;9.23;0.93;;;15.50;99.90;;;;;;5058117;28;25064;-79
2023/03/13 12:20:37;;;;;;;2.95;1.10;;;15.60;99.90;;;;;;5059588;28;25071;-79
2023/03/13 12:23:19;;;;;;;3.85;0.70;;;15.60;99.90;;;;;;5058033;28;25124;-78
2023/03/13 12:26:01;;;;;;;4.57;0.70;;;15.60;99.90;;;;;;5059122;28;25123;-78
2023/03/13 12:28:43;;;;;;;3.47;0.80;;;15.80;99.90;;;;;;5059530;28;25090;-79
2023/03/13 12:31:40;;;;;;;2.80;0.73;;;16.00;99.90;;;;;;5059047;28;25167;-78
2023/03/13 12:34:27;;;;;;;2.22;0.70;;;16.20;99.90;;;;;;5058855;28;25056;-79
2023/03/13 12:37:13;;;;;;;2.50;0.65;;;16.30;99.90;;;;;;5059195;28;25108;-78
2023/03/13 12:40:01;;;;;;;1.70;0.57;;;16.30;99.90;;;;;;5058824;28;25065;-79
2023/03/13 12:42:55;;;;;;;1.70;0.88;;;16.40;99.90;;;;;;5058756;28;25116;-79
2023/03/13 12:45:25;;;;;;;2.78;0.80;;;16.40;99.90;;;;;;5058641;28;25103;-79
2023/03/13 12:48:35;;;;;;;4.68;1.00;;;16.50;99.90;;;;;;5057214;28;25083;-79
2023/03/13 12:51:18;;;;;;;3.25;0.70;;;16.60;99.90;;;;;;5058371;28;25159;-79
2023/03/13 12:54:10;;;;;;;4.25;1.58;;;16.60;99.90;;;;;;5058997;28;25110;-79
2023/03/13 12:57:08;;;;;;;1.67;0.70;;;16.50;99.90;;;;;;5058973;28;25076;-79
2023/03/13 12:59:48;;;;;;;1.02;0.60;;;16.40;99.90;;;;;;5058731;28;25082;-79
2023/03/13 13:02:29;;;;;;;1.42;0.65;;;16.30;99.90;;;;;;5057353;28;25064;-79
2023/03/13 13:05:00;;;;;;;1.35;0.47;;;16.30;99.90;;;;;;5057455;28;25063;-79
2023/03/13 13:07:35;;;;;;;3.47;1.90;;;16.30;99.90;;;;;;5058556;28;25116;-79
2023/03/13 13:10:15;;;;;;;3.45;1.13;;;16.50;99.90;;;;;;5058550;28;25056;-79
2023/03/13 13:13:04;;;;;;;1.48;0.55;;;16.70;99.90;;;;;;5058421;28;25083;-78
2023/03/13 13:15:33;;;;;;;2.17;1.00;;;16.80;99.90;;;;;;5058205;28;25048;-79